Time;durP1;ratioP1;P1;durP2;ratioP2;P2;SDS_P1;SDS_P2;PMS_P1;PMS_P2;Temp;Humidity;BMP_temperature;BMP_pressure;BME280_temperature;BME280_humidity;BME280_pressure;Samples;Min_cycle;Max_cycle;Signal;HPM_P1;HPM_P2
2021/08/18 00:00:06;;;;;;;20.98;11.07;;;14.80;91.30;;;15.03;69.28;97820.03;5027963;28;20045;-35
2021/08/18 00:02:34;;;;;;;21.85;11.57;;;14.90;91.30;;;14.99;69.29;97818.72;5028585;28;20275;-35
2021/08/18 00:05:05;;;;;;;18.42;11.30;;;14.90;91.40;;;14.98;69.41;97820.56;5029297;28;20056;-35
2021/08/18 00:07:33;;;;;;;21.35;12.07;;;14.90;91.30;;;14.98;69.25;97812.50;5028202;28;20273;-35
2021/08/18 00:10:01;;;;;;;19.73;11.52;;;14.80;91.60;;;14.95;69.46;97811.03;5028294;28;20068;-35
2021/08/18 00:12:29;;;;;;;17.55;10.68;;;14.90;91.40;;;14.97;69.48;97813.56;5026539;28;20057;-35
2021/08/18 00:14:57;;;;;;;18.02;10.90;;;14.90;90.70;;;14.80;69.85;97812.88;5027225;28;20053;-35
2021/08/18 00:17:25;;;;;;;20.70;11.80;;;14.80;90.80;;;14.95;69.35;97812.91;5026581;28;20244;-35
2021/08/18 00:19:53;;;;;;;21.48;11.60;;;14.90;91.00;;;15.00;69.09;97813.16;5027506;28;20069;-35
2021/08/18 00:22:21;;;;;;;20.20;11.02;;;15.00;90.70;;;15.01;69.13;97811.34;5027422;28;20053;-35
2021/08/18 00:24:49;;;;;;;21.42;11.80;;;15.00;90.10;;;15.01;68.98;97812.16;5028476;28;20046;-35
2021/08/18 00:27:16;;;;;;;19.50;11.75;;;14.90;90.40;;;14.98;69.13;97809.00;5027924;28;20057;-35
2021/08/18 00:29:44;;;;;;;22.42;12.48;;;14.90;90.30;;;15.01;68.85;97816.69;5026671;28;20385;-35
2021/08/18 00:32:12;;;;;;;24.92;11.38;;;14.90;90.30;;;15.03;69.06;97817.34;5026525;28;20042;-35
2021/08/18 00:34:40;;;;;;;20.10;11.55;;;15.00;90.00;;;15.07;68.86;97819.44;5027109;28;20068;-35
2021/08/18 00:37:08;;;;;;;21.33;11.63;;;15.00;90.00;;;15.06;68.69;97815.13;5025161;28;20049;-35
2021/08/18 00:39:36;;;;;;;18.95;10.10;;;15.00;89.70;;;15.08;68.59;97818.44;5026259;28;20060;-35
2021/08/18 00:42:04;;;;;;;18.40;11.25;;;15.00;89.50;;;14.99;69.01;97811.50;5028537;28;20071;-35
2021/08/18 00:44:37;;;;;;;20.45;10.77;;;15.00;89.50;;;15.01;68.82;97820.19;5028557;28;20056;-35
2021/08/18 00:47:06;;;;;;;19.67;12.15;;;15.00;89.50;;;15.06;68.76;97816.94;5027463;28;20053;-35
2021/08/18 00:49:34;;;;;;;17.88;10.13;;;15.00;89.50;;;15.04;68.85;97809.09;5027794;28;20052;-35
2021/08/18 00:52:04;;;;;;;20.33;12.18;;;15.00;89.60;;;15.03;68.86;97807.44;5027155;28;20057;-38
2021/08/18 00:54:49;;;;;;;22.65;11.90;;;15.00;89.40;;;15.06;68.75;97804.41;5026304;28;20064;-39
2021/08/18 00:57:17;;;;;;;22.88;11.27;;;15.00;89.70;;;15.11;68.79;97803.84;5027132;28;20049;-38
2021/08/18 00:59:45;;;;;;;19.38;12.00;;;15.10;89.60;;;15.15;68.72;97803.25;5026929;28;20065;-38
2021/08/18 01:02:13;;;;;;;20.40;10.90;;;15.10;89.10;;;15.10;68.58;97802.16;5025355;28;20057;-38
2021/08/18 01:04:42;;;;;;;22.50;11.80;;;15.00;89.00;;;15.11;68.45;97798.47;5027172;28;20052;-39
2021/08/18 01:07:13;;;;;;;16.20;10.65;;;15.00;89.00;;;15.08;68.54;97799.69;5026768;28;20360;-38
2021/08/18 01:09:40;;;;;;;18.02;12.02;;;15.00;89.10;;;15.07;68.78;97799.88;5026250;28;20049;-39
2021/08/18 01:12:12;;;;;;;19.15;11.13;;;15.00;89.60;;;14.94;68.97;97793.28;5026218;28;20059;-38
2021/08/18 01:14:40;;;;;;;17.40;9.93;;;14.90;89.60;;;14.99;68.92;97798.09;5028672;28;20061;-38
2021/08/18 01:17:12;;;;;;;19.83;10.63;;;15.00;89.70;;;14.92;69.21;97802.53;5026130;28;20534;-38
2021/08/18 01:19:40;;;;;;;20.58;11.55;;;14.90;89.60;;;14.97;68.97;97797.47;5027345;28;20062;-38
2021/08/18 01:22:08;;;;;;;20.88;12.88;;;14.90;89.70;;;14.96;69.10;97795.78;5025554;28;20057;-39
2021/08/18 01:24:36;;;;;;;16.10;9.90;;;14.90;89.80;;;14.95;69.08;97803.00;5026842;28;20049;-38
2021/08/18 01:27:03;;;;;;;17.35;8.65;;;14.90;90.10;;;14.98;69.02;97800.97;5025030;28;20053;-38
2021/08/18 01:29:31;;;;;;;15.38;10.23;;;14.90;90.00;;;15.02;68.93;97799.56;5024973;28;20053;-38
2021/08/18 01:31:59;;;;;;;18.45;10.82;;;14.90;90.10;;;15.03;68.89;97802.06;5026278;28;20060;-38
2021/08/18 01:34:27;;;;;;;13.25;9.05;;;15.00;89.70;;;14.98;68.93;97798.28;5024050;28;20336;-38
2021/08/18 01:36:55;;;;;;;18.58;9.18;;;14.90;89.90;;;14.99;68.75;97798.09;5026831;28;20056;-38
2021/08/18 01:39:23;;;;;;;15.48;9.88;;;14.90;89.60;;;15.02;68.92;97803.09;5026093;28;20225;-38
2021/08/18 01:41:50;;;;;;;14.05;10.15;;;15.00;89.50;;;15.02;68.69;97796.91;5027130;28;20053;-38
2021/08/18 01:44:18;;;;;;;16.65;8.00;;;14.90;89.70;;;15.04;68.71;97798.38;5040883;28;20053;-38
2021/08/18 01:46:46;;;;;;;14.27;8.60;;;15.00;89.40;;;15.09;68.53;97804.00;5026713;28;20368;-39
2021/08/18 01:49:15;;;;;;;16.25;8.05;;;15.00;89.30;;;15.13;68.61;97813.34;5025607;28;20049;-38
2021/08/18 01:51:43;;;;;;;11.27;7.72;;;15.10;89.10;;;15.18;68.51;97807.44;5024435;28;20065;-38
2021/08/18 01:54:13;;;;;;;12.88;7.13;;;15.10;88.80;;;15.14;68.49;97809.66;5026838;28;20065;-38
2021/08/18 01:56:41;;;;;;;10.60;6.25;;;15.10;89.10;;;15.10;68.57;97808.38;5025888;28;20057;-38
2021/08/18 01:59:09;;;;;;;9.13;5.88;;;15.10;89.20;;;15.15;68.46;97816.66;5026168;28;20249;-38
2021/08/18 02:01:36;;;;;;;11.73;6.38;;;15.10;89.20;;;15.14;68.40;97806.13;5026070;28;20067;-38
2021/08/18 02:04:04;;;;;;;9.00;5.15;;;15.10;89.10;;;15.11;68.69;97801.97;5025437;28;20060;-38
2021/08/18 02:06:32;;;;;;;8.10;5.25;;;15.00;89.00;;;15.12;68.70;97808.16;5026977;28;20054;-38
2021/08/18 02:09:00;;;;;;;10.95;5.30;;;15.10;89.30;;;15.12;68.81;97806.34;5025014;28;20052;-39
2021/08/18 02:11:28;;;;;;;7.72;4.75;;;15.10;89.40;;;15.11;68.91;97815.38;5024913;28;20057;-38
2021/08/18 02:13:56;;;;;;;7.60;5.55;;;15.00;89.80;;;15.06;68.90;97811.59;5026033;28;20061;-38
2021/08/18 02:16:24;;;;;;;7.65;4.75;;;15.00;90.10;;;15.04;68.97;97800.22;5026967;28;20574;-39
2021/08/18 02:18:52;;;;;;;6.55;3.85;;;15.00;90.30;;;15.03;69.33;97802.06;5025242;28;20056;-38
2021/08/18 02:21:19;;;;;;;6.25;4.00;;;14.90;90.40;;;14.99;69.45;97805.31;5025452;28;20055;-39
2021/08/18 02:23:47;;;;;;;6.30;3.95;;;15.00;90.40;;;14.96;69.57;97804.66;5025066;28;20045;-39
2021/08/18 02:26:15;;;;;;;5.70;3.95;;;14.90;90.90;;;14.93;69.90;97796.19;5025740;28;20060;-38
2021/08/18 02:28:43;;;;;;;6.25;4.00;;;14.90;91.30;;;14.98;69.64;97803.66;5025222;28;20363;-39
2021/08/18 02:31:11;;;;;;;7.32;3.75;;;14.90;91.00;;;14.95;69.74;97796.81;5026027;28;20053;-39
2021/08/18 02:33:39;;;;;;;5.78;3.45;;;14.90;91.00;;;14.95;69.85;97797.66;5025562;28;20049;-39
2021/08/18 02:36:07;;;;;;;5.15;3.13;;;14.90;91.00;;;15.00;69.73;97797.06;5024878;28;20049;-38
2021/08/18 02:38:35;;;;;;;4.20;3.25;;;15.00;90.70;;;14.98;69.66;97796.44;5025162;28;20061;-38
2021/08/18 02:41:03;;;;;;;8.90;3.22;;;15.00;90.60;;;14.99;69.68;97803.47;5023556;28;20103;-38
2021/08/18 02:43:31;;;;;;;4.90;3.20;;;15.00;90.60;;;15.05;69.55;97799.22;5024605;28;20061;-39
2021/08/18 02:45:59;;;;;;;5.15;2.90;;;15.00;90.50;;;15.06;69.59;97800.88;5024942;28;20049;-38
2021/08/18 02:48:26;;;;;;;5.53;2.97;;;15.00;90.50;;;15.04;69.58;97793.00;5024086;28;20049;-39
2021/08/18 02:50:57;;;;;;;4.57;2.95;;;15.00;90.60;;;15.04;69.73;97797.53;5024281;28;20236;-38
2021/08/18 02:53:25;;;;;;;5.35;3.50;;;15.00;90.90;;;14.88;70.14;97794.03;5025145;28;20053;-38
2021/08/18 02:55:53;;;;;;;4.53;3.15;;;14.80;91.80;;;14.84;70.20;97789.25;5024478;28;20056;-39
2021/08/18 02:58:21;;;;;;;5.22;2.72;;;14.80;92.30;;;14.82;70.37;97799.31;5023081;28;20340;-38
2021/08/18 03:00:49;;;;;;;4.45;2.83;;;14.70;92.20;;;14.82;70.16;97792.09;5023816;28;20058;-38
2021/08/18 03:03:17;;;;;;;4.53;3.20;;;14.70;92.60;;;14.85;70.24;97805.13;5024937;28;20041;-38
2021/08/18 03:05:45;;;;;;;3.10;2.25;;;14.80;92.30;;;14.90;70.44;97801.91;5025719;28;20064;-39
2021/08/18 03:08:13;;;;;;;3.63;2.78;;;14.80;92.10;;;14.94;69.98;97803.19;5024285;28;20064;-38
2021/08/18 03:10:41;;;;;;;4.13;3.03;;;14.80;91.80;;;15.01;69.88;97803.28;5023095;28;20240;-38
2021/08/18 03:13:09;;;;;;;5.70;2.58;;;14.90;91.70;;;15.05;69.91;97802.72;5023554;28;20059;-38
2021/08/18 03:15:37;;;;;;;5.25;2.60;;;15.00;91.30;;;15.00;70.12;97806.97;5023841;28;20340;-38
2021/08/18 03:18:05;;;;;;;4.38;2.70;;;14.90;91.60;;;15.03;69.84;97810.13;5022224;28;20049;-38
2021/08/18 03:20:33;;;;;;;5.03;2.85;;;14.90;91.70;;;15.04;69.93;97802.91;5024041;28;20067;-38
2021/08/18 03:23:01;;;;;;;4.30;3.00;;;15.00;91.40;;;15.04;70.11;97819.81;5024228;28;20045;-38
2021/08/18 03:25:29;;;;;;;3.67;2.38;;;15.00;91.30;;;14.96;70.37;97809.19;5024047;28;20060;-38
2021/08/18 03:27:57;;;;;;;5.70;2.90;;;14.90;91.50;;;14.95;70.28;97811.03;5024751;28;20385;-38
2021/08/18 03:30:25;;;;;;;4.22;2.83;;;14.90;92.00;;;14.90;70.58;97807.25;5025718;28;20057;-38
2021/08/18 03:32:52;;;;;;;5.38;3.45;;;14.80;92.50;;;14.90;70.53;97813.44;5023554;28;20057;-38
2021/08/18 03:35:21;;;;;;;7.15;3.42;;;14.80;92.60;;;14.84;70.77;97808.00;5025680;28;20127;-38
2021/08/18 03:37:49;;;;;;;4.13;2.30;;;14.80;92.90;;;14.91;70.59;97804.41;5022597;28;20091;-38
2021/08/18 03:40:17;;;;;;;3.50;2.40;;;14.80;92.60;;;14.96;70.38;97806.50;5025658;28;20060;-38
2021/08/18 03:42:45;;;;;;;3.35;2.50;;;14.90;92.20;;;15.03;70.16;97809.31;5023657;28;20046;-38
2021/08/18 03:45:13;;;;;;;4.75;2.70;;;15.00;91.90;;;15.02;70.42;97810.31;5025663;28;20344;-38
2021/08/18 03:47:41;;;;;;;4.60;2.50;;;15.00;91.70;;;14.98;70.43;97811.69;5024833;28;20063;-38
2021/08/18 03:50:10;;;;;;;5.13;2.70;;;15.00;91.70;;;15.03;70.32;97812.81;5023579;28;20231;-38
2021/08/18 03:52:40;;;;;;;3.72;2.80;;;15.00;91.70;;;14.99;70.56;97808.84;5023962;28;20353;-38
2021/08/18 03:55:11;;;;;;;4.70;2.70;;;15.00;91.90;;;15.06;70.39;97812.44;5024350;28;20063;-38
2021/08/18 03:57:40;;;;;;;4.05;2.35;;;15.00;91.80;;;15.10;70.34;97810.19;5027159;28;20060;-38
2021/08/18 04:00:09;;;;;;;2.65;1.80;;;15.10;91.70;;;15.14;70.18;97808.81;5028102;28;20053;-38
2021/08/18 04:02:38;;;;;;;3.97;2.55;;;15.10;91.80;;;15.14;70.41;97811.50;5028343;28;20047;-38
2021/08/18 04:05:07;;;;;;;3.10;2.15;;;15.10;91.80;;;15.11;70.21;97814.56;5028915;28;20045;-38
2021/08/18 04:07:35;;;;;;;3.85;2.30;;;15.00;92.20;;;15.12;70.33;97813.53;5027262;28;20341;-38
2021/08/18 04:10:05;;;;;;;3.60;2.63;;;15.00;92.30;;;15.09;70.26;97814.75;5027416;28;20057;-38
2021/08/18 04:12:58;;;;;;;5.15;2.33;;;15.00;92.40;;;15.07;70.26;97821.31;5029071;28;20050;-38
2021/08/18 04:15:38;;;;;;;3.15;2.10;;;15.00;93.10;;;15.10;70.33;97820.91;5028445;28;20224;-38
2021/08/18 04:18:08;;;;;;;2.55;1.63;;;14.90;92.90;;;15.13;70.19;97823.25;5029142;28;20258;-38
2021/08/18 04:20:36;;;;;;;1.92;1.58;;;14.90;93.00;;;15.14;70.34;97823.06;5027966;28;20069;-38
2021/08/18 04:23:04;;;;;;;2.97;1.92;;;14.90;92.90;;;15.09;70.41;97820.09;5028316;28;20297;-38
2021/08/18 04:25:32;;;;;;;3.67;2.20;;;14.90;93.10;;;15.13;70.29;97820.56;5028759;28;20059;-38
2021/08/18 04:28:00;;;;;;;2.70;1.90;;;15.00;92.90;;;15.15;70.45;97822.03;5027238;28;20063;-39
2021/08/18 04:30:28;;;;;;;3.60;2.25;;;15.00;92.70;;;15.16;70.31;97820.22;5026131;28;20215;-38
2021/08/18 04:32:56;;;;;;;3.08;2.20;;;15.00;92.70;;;15.19;70.49;97825.19;5027225;28;20065;-38
2021/08/18 04:35:24;;;;;;;3.83;2.00;;;15.10;92.80;;;15.22;70.39;97821.28;5027252;28;20061;-39
2021/08/18 04:37:55;;;;;;;2.75;2.10;;;15.10;92.60;;;15.21;70.52;97820.47;5026993;28;20061;-38
2021/08/18 04:40:23;;;;;;;3.17;1.90;;;15.10;92.50;;;15.22;70.45;97819.44;5026564;28;20270;-39
2021/08/18 04:42:51;;;;;;;2.67;1.85;;;15.10;92.50;;;15.25;70.31;97823.59;5027954;28;20037;-39
2021/08/18 04:45:20;;;;;;;3.80;1.80;;;15.10;92.60;;;15.25;70.23;97821.75;5027958;28;20282;-38
2021/08/18 04:47:48;;;;;;;3.60;2.15;;;15.10;92.60;;;15.27;70.29;97825.06;5026700;28;20057;-38
2021/08/18 04:50:17;;;;;;;3.42;2.33;;;15.10;92.60;;;15.25;70.40;97824.44;5024956;28;20057;-38
2021/08/18 04:52:45;;;;;;;3.78;2.15;;;15.10;92.80;;;15.26;70.43;97836.84;5027817;28;20057;-38
2021/08/18 04:55:15;;;;;;;3.75;2.10;;;15.10;92.60;;;15.27;70.51;97830.44;5028786;28;20279;-39
2021/08/18 04:57:43;;;;;;;3.05;1.90;;;15.20;92.70;;;15.25;70.48;97828.97;5025875;28;20057;-38
2021/08/18 05:00:12;;;;;;;4.07;2.20;;;15.10;92.90;;;15.25;70.35;97828.97;5028208;28;20439;-38
2021/08/18 05:02:40;;;;;;;3.28;1.88;;;15.10;92.90;;;15.27;70.24;97830.44;5026641;28;20053;-38
2021/08/18 05:05:09;;;;;;;2.58;2.35;;;15.10;92.80;;;15.29;70.27;97831.06;5042309;28;20248;-38
2021/08/18 05:07:37;;;;;;;2.90;2.00;;;15.10;92.80;;;15.29;70.39;97830.25;5025545;28;20064;-38
2021/08/18 05:10:06;;;;;;;3.60;2.40;;;15.10;92.80;;;15.28;70.43;97832.13;5025816;28;20052;-38
2021/08/18 05:12:34;;;;;;;3.65;2.13;;;15.10;92.80;;;15.28;70.39;97834.78;5026939;28;20179;-38
2021/08/18 05:15:02;;;;;;;4.85;2.38;;;15.20;92.60;;;15.30;70.39;97835.44;5025806;28;20053;-38
2021/08/18 05:17:30;;;;;;;4.63;2.60;;;15.20;92.40;;;15.32;70.40;97829.91;5026389;28;20276;-38
2021/08/18 05:19:58;;;;;;;7.97;2.38;;;15.20;92.20;;;15.30;70.22;97834.63;5027327;28;20061;-38
2021/08/18 05:22:26;;;;;;;3.47;2.15;;;15.20;92.10;;;15.29;70.28;97835.63;5026178;28;20437;-37
2021/08/18 05:24:53;;;;;;;4.90;1.98;;;15.20;92.20;;;15.34;70.20;97838.59;5026198;28;20450;-38
2021/08/18 05:27:21;;;;;;;4.18;2.08;;;15.20;92.10;;;15.33;70.26;97837.75;5026882;28;20049;-38
2021/08/18 05:29:49;;;;;;;3.28;2.03;;;15.20;92.00;;;15.32;70.11;97833.41;5028356;28;20049;-37
2021/08/18 05:32:17;;;;;;;4.57;2.17;;;15.20;92.10;;;15.36;69.96;97840.06;5028043;28;20057;-38
2021/08/18 05:34:45;;;;;;;3.42;2.20;;;15.20;92.00;;;15.40;69.89;97848.56;5026651;28;20049;-38
2021/08/18 05:37:13;;;;;;;3.95;2.17;;;15.30;92.00;;;15.42;69.96;97849.22;5025416;28;20053;-38
2021/08/18 05:39:42;;;;;;;3.50;2.08;;;15.30;91.80;;;15.44;69.84;97838.28;5025286;28;20083;-38
2021/08/18 05:42:10;;;;;;;3.80;1.98;;;15.30;91.80;;;15.46;69.90;97849.66;5025934;28;20057;-38
2021/08/18 05:44:39;;;;;;;3.22;2.13;;;15.40;91.50;;;15.43;70.00;97841.97;5026375;28;20057;-38
2021/08/18 05:47:07;;;;;;;4.55;2.47;;;15.30;91.40;;;15.44;69.85;97843.66;5022093;28;20045;-38
2021/08/18 05:49:34;;;;;;;3.30;2.30;;;15.30;91.80;;;15.46;70.14;97845.13;5026816;28;20056;-38
2021/08/18 05:52:03;;;;;;;3.80;2.05;;;15.40;91.80;;;15.44;70.00;97841.81;5026265;28;20339;-38
2021/08/18 05:54:31;;;;;;;4.45;2.17;;;15.30;91.80;;;15.44;70.07;97841.81;5026167;28;20061;-37
2021/08/18 05:56:59;;;;;;;2.25;1.50;;;15.30;92.10;;;15.43;70.11;97841.97;5027794;28;20049;-38
2021/08/18 05:59:26;;;;;;;3.47;2.08;;;15.30;92.30;;;15.42;70.25;97838.47;5026298;28;20053;-38
2021/08/18 06:01:54;;;;;;;3.50;1.90;;;15.30;92.50;;;15.42;70.31;97841.16;5026384;28;20065;-38
2021/08/18 06:04:22;;;;;;;2.95;1.90;;;15.30;92.60;;;15.46;70.14;97841.63;5025893;28;20057;-38
2021/08/18 06:06:50;;;;;;;2.15;1.60;;;15.40;92.80;;;15.49;70.18;97844.75;5025837;28;20056;-37
2021/08/18 06:09:18;;;;;;;3.50;2.08;;;15.40;92.70;;;15.50;70.14;97845.59;5025431;28;20060;-37
2021/08/18 06:11:48;;;;;;;3.60;2.13;;;15.30;92.60;;;15.48;70.27;97850.31;5025657;28;20045;-37
2021/08/18 06:14:15;;;;;;;3.88;1.77;;;15.40;93.00;;;15.49;70.32;97843.91;5026164;28;20060;-37
2021/08/18 06:16:43;;;;;;;4.35;2.35;;;15.30;93.00;;;15.52;70.38;97846.22;5024222;28;20060;-37
2021/08/18 06:19:11;;;;;;;2.85;1.85;;;15.30;92.80;;;15.50;70.36;97848.28;5023727;28;20056;-37
2021/08/18 06:21:39;;;;;;;3.10;1.60;;;15.40;92.80;;;15.52;70.28;97847.06;5026336;28;20065;-37
2021/08/18 06:24:17;;;;;;;2.38;1.77;;;15.30;92.70;;;15.53;70.28;97843.38;5024070;28;20259;-37
2021/08/18 06:26:45;;;;;;;3.08;1.77;;;15.40;92.50;;;15.58;70.24;97842.78;5020884;28;20071;-37
2021/08/18 06:29:13;;;;;;;3.45;1.88;;;15.50;92.60;;;15.62;70.18;97840.56;5006112;28;20356;-37
2021/08/18 06:31:41;;;;;;;2.80;1.60;;;15.50;92.40;;;15.63;70.20;97842.25;5004879;28;20052;-37
2021/08/18 06:34:11;;;;;;;2.75;1.60;;;15.50;92.00;;;15.63;70.10;97847.63;5005828;28;20258;-37
2021/08/18 06:36:45;;;;;;;3.00;1.67;;;15.60;91.90;;;15.67;70.07;97846.22;5006675;28;20056;-37
2021/08/18 06:39:34;;;;;;;3.10;1.42;;;15.60;91.90;;;15.68;70.00;97848.72;5005407;28;20348;-37
2021/08/18 06:42:02;;;;;;;3.53;1.80;;;15.60;91.60;;;15.69;69.99;97850.34;5005391;28;20056;-38
2021/08/18 06:44:30;;;;;;;3.30;1.80;;;15.60;91.70;;;15.73;70.07;97842.78;5003266;28;20049;-37
2021/08/18 06:46:58;;;;;;;3.03;1.67;;;15.60;91.70;;;15.74;70.14;97841.75;5004084;28;20057;-37
2021/08/18 06:49:26;;;;;;;4.55;1.30;;;15.70;91.80;;;15.78;69.81;97839.53;5004182;28;20248;-38
2021/08/18 06:51:54;;;;;;;2.90;1.85;;;15.70;91.60;;;15.82;70.13;97847.03;5004617;28;20263;-38
2021/08/18 06:54:22;;;;;;;3.60;1.73;;;15.80;91.70;;;15.82;69.92;97844.34;5006003;28;20068;-38
2021/08/18 06:56:51;;;;;;;2.47;1.35;;;15.80;91.60;;;15.84;69.96;97850.34;5005444;28;20061;-38
2021/08/18 06:59:18;;;;;;;2.58;1.50;;;15.80;91.40;;;15.86;69.92;97847.50;5004477;28;20057;-38
2021/08/18 07:01:46;;;;;;;3.50;1.70;;;15.80;91.40;;;15.89;69.84;97842.53;5004464;28;20360;-37
2021/08/18 07:04:15;;;;;;;2.55;1.65;;;15.80;91.20;;;15.91;69.81;97843.19;5019300;28;20057;-38
2021/08/18 07:06:42;;;;;;;2.25;1.20;;;15.90;91.40;;;15.94;69.93;97845.50;5005911;28;20050;-37
2021/08/18 07:09:10;;;;;;;1.90;1.30;;;15.90;91.30;;;15.92;69.82;97852.91;5005133;28;20252;-37
2021/08/18 07:11:39;;;;;;;3.00;1.75;;;15.90;91.00;;;15.89;69.89;97847.91;5004666;28;20376;-38
2021/08/18 07:14:07;;;;;;;2.47;1.52;;;15.90;90.90;;;15.91;69.81;97845.88;5003920;28;20060;-38
2021/08/18 07:16:36;;;;;;;1.23;1.00;;;15.90;91.10;;;15.98;69.70;97850.50;5006206;28;20066;-38
2021/08/18 07:19:04;;;;;;;2.10;1.30;;;16.00;91.00;;;16.01;69.80;97852.78;5004784;28;20229;-37
2021/08/18 07:21:33;;;;;;;1.63;1.15;;;16.00;90.50;;;16.06;69.81;97850.38;5003715;28;20072;-38
2021/08/18 07:24:01;;;;;;;1.73;1.20;;;16.10;90.20;;;16.09;69.31;97845.47;5003589;28;20057;-38
2021/08/18 07:26:30;;;;;;;1.95;1.13;;;16.10;91.20;;;16.12;69.76;97844.25;5005125;28;20376;-38
2021/08/18 07:28:58;;;;;;;1.80;1.02;;;16.10;90.30;;;16.15;69.54;97849.25;5005482;28;20046;-38
2021/08/18 07:31:27;;;;;;;1.95;1.20;;;16.20;90.10;;;16.19;69.60;97844.28;5004832;28;20046;-37
2021/08/18 07:33:55;;;;;;;1.58;1.08;;;16.30;90.00;;;16.25;69.54;97844.38;5009123;28;20236;-37
2021/08/18 07:36:23;;;;;;;1.10;0.88;;;16.30;90.10;;;16.28;69.41;97840.44;5009047;28;20064;-38
2021/08/18 07:38:53;;;;;;;1.30;0.80;;;16.30;89.90;;;16.31;69.17;97845.44;5007533;28;20061;-37
2021/08/18 07:41:31;;;;;;;2.35;1.13;;;16.40;89.30;;;16.33;68.88;97846.91;5028337;28;20272;-38
2021/08/18 07:44:03;;;;;;;1.33;0.88;;;16.50;89.00;;;16.42;68.87;97844.09;5026675;28;20042;-37
2021/08/18 07:46:34;;;;;;;;;;;16.50;88.20;;;16.40;68.79;97835.38;5044296;28;20209;-37
2021/08/18 07:49:09;;;;;;;0.90;0.80;;;16.60;88.30;;;16.37;68.97;97835.78;5024388;28;19917;-37
2021/08/18 07:51:39;;;;;;;1.83;0.90;;;16.50;88.90;;;16.33;69.30;97835.34;5026716;28;20267;-37
2021/08/18 07:54:07;;;;;;;0.60;0.60;;;16.40;89.00;;;16.41;69.11;97835.19;5007848;28;20045;-37
2021/08/18 07:56:35;;;;;;;1.02;0.77;;;16.50;89.40;;;16.40;69.00;97838.94;5008243;28;20053;-37
2021/08/18 07:59:03;;;;;;;1.00;0.77;;;16.60;87.70;;;16.37;68.97;97838.47;5009171;28;20056;-38
2021/08/18 08:01:37;;;;;;;0.57;0.52;;;16.50;88.50;;;16.47;68.85;97845.16;5018609;28;20212;-37
2021/08/18 08:04:06;;;;;;;1.20;0.90;;;16.60;88.30;;;16.55;68.66;97836.13;5032601;28;20037;-37
2021/08/18 08:06:34;;;;;;;0.50;0.50;;;16.70;87.80;;;16.50;68.66;97833.22;5035411;28;20075;-37
2021/08/18 08:09:03;;;;;;;0.60;0.60;;;16.70;87.60;;;16.60;68.33;97840.94;5032209;28;20055;-37
2021/08/18 08:11:31;;;;;;;0.85;0.68;;;16.80;87.50;;;16.46;68.40;97837.28;5030999;28;20053;-37
2021/08/18 08:14:01;;;;;;;1.38;0.47;;;16.70;86.40;;;16.57;68.53;97835.94;5033534;28;20250;-38
2021/08/18 08:16:29;;;;;;;0.63;0.45;;;16.80;87.90;;;16.63;68.52;97840.53;5033642;28;20050;-37
2021/08/18 08:19:00;;;;;;;0.80;0.70;;;16.90;86.90;;;16.45;68.24;97844.53;5025130;28;20131;-38
2021/08/18 08:21:30;;;;;;;1.25;0.80;;;16.70;86.50;;;16.56;68.37;97845.88;5046249;28;20059;-37
2021/08/18 08:23:58;;;;;;;0.50;0.40;;;16.70;87.60;;;16.52;68.46;97852.66;5036146;28;20049;-38
2021/08/18 08:26:26;;;;;;;1.17;0.73;;;16.70;87.20;;;16.55;68.21;97852.25;5026974;28;20359;-38
2021/08/18 08:28:54;;;;;;;0.60;0.50;;;16.80;86.60;;;16.56;67.51;97847.75;5026356;28;20064;-38
2021/08/18 08:31:22;;;;;;;0.70;0.70;;;16.80;86.20;;;16.64;67.81;97850.28;5026706;28;20049;-38
2021/08/18 08:33:50;;;;;;;1.35;0.75;;;16.80;86.30;;;16.59;68.12;97852.72;5026462;28;20053;-38
2021/08/18 08:36:18;;;;;;;0.70;0.68;;;16.80;87.30;;;16.40;68.13;97860.44;5026862;28;20050;-37
2021/08/18 08:38:47;;;;;;;0.75;0.60;;;16.60;85.90;;;16.45;68.05;97847.22;5025535;28;20150;-38
2021/08/18 08:41:15;;;;;;;0.85;0.50;;;16.60;87.20;;;16.62;68.11;97850.47;5026387;28;20045;-38
2021/08/18 08:43:44;;;;;;;0.90;0.80;;;16.80;87.20;;;16.57;68.03;97850.22;5027542;28;20056;-38
2021/08/18 08:46:12;;;;;;;1.13;0.80;;;16.80;86.60;;;16.60;68.39;97851.69;5025859;28;20259;-38
2021/08/18 08:48:41;;;;;;;0.80;0.80;;;16.80;86.50;;;16.47;68.36;97855.91;5021544;28;20057;-37
2021/08/18 08:51:11;;;;;;;0.85;0.85;;;16.80;86.50;;;16.48;68.09;97854.09;5026382;28;20053;-37
2021/08/18 08:53:41;;;;;;;1.70;1.10;;;16.70;86.50;;;16.56;68.30;97856.63;5026150;28;20048;-37
2021/08/18 08:56:09;;;;;;;0.93;0.93;;;16.90;86.30;;;16.54;67.55;97848.75;5028054;28;20057;-37
2021/08/18 08:58:37;;;;;;;1.80;1.38;;;16.90;84.70;;;16.66;67.79;97857.13;5025795;28;20053;-37
2021/08/18 09:01:05;;;;;;;1.38;1.00;;;17.00;85.70;;;16.64;67.92;97864.53;5025737;28;20061;-37
2021/08/18 09:03:35;;;;;;;1.55;1.10;;;17.00;85.90;;;16.74;67.67;97862.34;5027565;28;20061;-38
2021/08/18 09:06:07;;;;;;;3.03;1.00;;;17.00;86.10;;;16.88;67.74;97854.41;5027609;28;20410;-37
2021/08/18 09:08:51;;;;;;;1.52;0.80;;;17.20;85.70;;;16.95;67.20;97854.47;5024381;28;20053;-37
2021/08/18 09:11:21;;;;;;;2.60;1.02;;;17.30;84.60;;;17.08;66.87;97858.06;5025483;28;20055;-37
2021/08/18 09:13:54;;;;;;;2.67;1.77;;;17.40;83.90;;;16.90;66.42;97857.72;5026226;28;20053;-37
2021/08/18 09:16:36;;;;;;;2.78;1.13;;;17.30;83.50;;;17.03;66.66;97855.13;5024507;28;20061;-36
2021/08/18 09:19:12;;;;;;;1.50;1.23;;;17.30;84.60;;;17.04;66.67;97854.13;5026257;28;20059;-36
2021/08/18 09:21:42;;;;;;;1.63;1.40;;;17.40;84.00;;;16.92;66.27;97847.59;5025019;28;20057;-36
2021/08/18 09:24:16;;;;;;;2.20;1.38;;;17.20;83.10;;;16.98;66.43;97852.19;5026702;28;20057;-36
2021/08/18 09:27:00;;;;;;;1.58;1.00;;;17.30;84.00;;;17.02;66.11;97850.78;5025889;28;20045;-36
2021/08/18 09:29:43;;;;;;;1.92;1.00;;;17.40;83.20;;;17.06;65.93;97848.50;5019622;28;20053;-36
2021/08/18 09:32:36;;;;;;;1.60;1.40;;;17.40;83.60;;;17.28;65.89;97851.97;5007625;28;20079;-37
2021/08/18 09:35:11;;;;;;;1.45;1.20;;;17.60;83.40;;;17.18;66.02;97854.19;5007954;28;20060;-36
2021/08/18 09:37:53;;;;;;;0.90;0.70;;;17.50;83.30;;;17.37;65.96;97849.94;5006332;28;20466;-37
2021/08/18 09:40:32;;;;;;;2.20;1.00;;;17.60;84.00;;;17.40;65.29;97847.66;5006325;28;20050;-37
2021/08/18 09:43:21;;;;;;;2.70;1.15;;;17.70;81.20;;;17.48;65.27;97857.44;5007028;28;20233;-36
2021/08/18 09:46:05;;;;;;;2.22;1.27;;;17.70;82.00;;;17.52;65.03;97851.47;5007162;28;20180;-36
2021/08/18 09:48:37;;;;;;;1.40;1.23;;;17.70;82.40;;;17.56;65.29;97845.66;5005252;28;20081;-36
2021/08/18 09:51:10;;;;;;;1.48;1.13;;;17.70;82.80;;;17.51;65.19;97851.66;5005491;28;20244;-36
2021/08/18 09:53:41;;;;;;;1.80;1.50;;;17.70;82.60;;;17.48;64.93;97852.88;5006459;28;20054;-37
2021/08/18 09:56:14;;;;;;;1.83;1.30;;;17.70;83.30;;;17.31;65.25;97849.72;5006484;28;20056;-37
2021/08/18 09:58:48;;;;;;;2.37;1.30;;;17.50;82.90;;;17.12;64.81;97853.13;5007222;28;20053;-37
2021/08/18 10:01:19;;;;;;;3.40;1.27;;;17.40;81.90;;;17.23;65.28;97851.72;5005866;28;20911;-37
2021/08/18 10:03:52;;;;;;;2.05;1.40;;;17.40;83.50;;;17.33;65.17;97854.88;5006457;28;20247;-37
2021/08/18 10:06:21;;;;;;;1.88;1.60;;;17.60;82.60;;;17.40;65.16;97860.31;5008142;28;20053;-37
2021/08/18 10:08:52;;;;;;;14.30;2.25;;;17.60;82.60;;;17.42;64.95;97850.16;5005348;28;20296;-37
2021/08/18 10:11:22;;;;;;;2.28;1.70;;;17.70;82.80;;;17.28;65.12;97851.97;5005530;28;20259;-37
2021/08/18 10:13:52;;;;;;;1.80;1.40;;;17.60;82.00;;;17.48;65.24;97860.94;5007052;28;20349;-37
2021/08/18 10:16:20;;;;;;;2.20;1.52;;;17.70;82.90;;;17.61;65.18;97862.06;5006807;28;20235;-37
2021/08/18 10:18:53;;;;;;;2.00;1.80;;;17.90;82.30;;;17.72;64.70;97861.50;5005500;28;20061;-38
2021/08/18 10:21:33;;;;;;;2.03;1.50;;;18.10;81.20;;;17.70;64.14;97858.16;4988994;28;20068;-37
2021/08/18 10:24:04;;;;;;;2.78;1.80;;;18.10;80.20;;;17.89;64.25;97857.44;5006059;28;20260;-38
2021/08/18 10:26:35;;;;;;;1.90;1.58;;;18.30;80.50;;;17.83;63.71;97865.44;5008067;28;20060;-37